Time,TemperatureF,DewpointF,PressureIn,WindDirection,WindDirectionDegrees,WindSpeedMPH,WindSpeedGustMPH,Humidity,HourlyPrecipIn,Conditions,Clouds,dailyrainin,SoftwareType,DateUTC
2013-09-18 00:01:00,61.2,47.7,29.78,SSW,208,5.0,0.0,61,0.00,,,0.00,meteohub,2013-09-18 07:01:00,
2013-09-18 00:06:00,63.9,47.3,29.78,WSW,245,0.0,10.0,55,0.00,,,0.00,meteohub,2013-09-18 07:06:00,
2013-09-18 00:11:00,64.8,46.8,29.78,NW,316,0.0,10.0,52,0.00,,,0.00,meteohub,2013-09-18 07:11:00,
2013-09-18 00:16:00,65.5,46.9,29.78,NW,317,0.0,10.0,51,0.00,,,0.00,meteohub,2013-09-18 07:16:00,
2013-09-18 00:21:00,65.1,46.6,29.78,NW,316,0.0,9.0,51,0.00,,,0.00,meteohub,2013-09-18 07:21:00,
2013-09-18 00:26:00,66.0,46.4,29.78,NW,316,0.0,6.0,49,0.00,,,0.00,meteohub,2013-09-18 07:26:00,
2013-09-18 00:31:00,66.4,46.0,29.78,NW,317,0.0,0.0,48,0.00,,,0.00,meteohub,2013-09-18 07:31:00,
2013-09-18 00:36:00,65.5,45.3,29.78,NW,317,0.0,0.0,48,0.00,,,0.00,meteohub,2013-09-18 07:36:00,
2013-09-18 00:41:00,64.9,45.3,29.78,NW,316,0.0,0.0,49,0.00,,,0.00,meteohub,2013-09-18 07:41:00,
2013-09-18 00:46:00,65.7,45.5,29.78,NW,316,0.0,4.0,48,0.00,,,0.00,meteohub,2013-09-18 07:46:00,
2013-09-18 00:51:00,66.0,45.1,29.78,NW,316,0.0,5.0,47,0.00,,,0.00,meteohub,2013-09-18 07:51:00,
2013-09-18 00:56:00,66.0,44.6,29.78,NW,316,0.0,5.0,46,0.00,,,0.00,meteohub,2013-09-18 07:56:00,
2013-09-18 01:01:00,65.5,44.8,29.78,NW,316,0.0,5.0,47,0.00,,,0.00,meteohub,2013-09-18 08:01:00,
2013-09-18 01:06:00,65.1,44.4,29.78,NW,316,0.0,0.0,47,0.00,,,0.00,meteohub,2013-09-18 08:06:00,
2013-09-18 01:11:00,64.9,44.2,29.78,NW,316,4.0,0.0,47,0.00,,,0.00,meteohub,2013-09-18 08:11:00,
2013-09-18 01:16:00,65.7,44.2,29.78,NW,316,0.0,5.0,46,0.00,,,0.00,meteohub,2013-09-18 08:16:00,
2013-09-18 01:21:00,66.6,44.1,29.78,NW,316,0.0,5.0,44,0.00,,,0.00,meteohub,2013-09-18 08:21:00,
2013-09-18 01:26:00,67.3,44.1,29.78,NW,316,0.0,5.0,43,0.00,,,0.00,meteohub,2013-09-18 08:26:00,
2013-09-18 01:32:00,67.1,43.9,29.78,NW,316,0.0,3.0,43,0.00,,,0.00,meteohub,2013-09-18 08:32:00,
2013-09-18 01:37:00,66.6,44.1,29.78,NW,316,0.0,3.0,44,0.00,,,0.00,meteohub,2013-09-18 08:37:00,
2013-09-18 01:42:00,65.7,43.7,29.78,NW,316,0.0,0.0,45,0.00,,,0.00,meteohub,2013-09-18 08:42:00,
2013-09-18 01:47:00,65.7,43.7,29.78,NW,316,0.0,0.0,45,0.00,,,0.00,meteohub,2013-09-18 08:47:00,
2013-09-18 01:52:00,65.7,43.7,29.77,NW,316,0.0,0.0,45,0.00,,,0.00,meteohub,2013-09-18 08:52:00,
2013-09-18 01:57:00,65.7,43.7,29.78,NW,316,0.0,0.0,45,0.00,,,0.00,meteohub,2013-09-18 08:57:00,
2013-09-18 02:02:00,64.8,43.5,29.77,NW,316,0.0,0.0,46,0.00,,,0.00,meteohub,2013-09-18 09:02:00,
2013-09-18 02:07:00,64.9,43.7,29.77,NW,315,0.0,4.0,46,0.00,,,0.00,meteohub,2013-09-18 09:07:00,
2013-09-18 02:12:00,66.0,44.1,29.77,NW,315,0.0,4.0,45,0.00,,,0.00,meteohub,2013-09-18 09:12:00,
2013-09-18 02:17:00,66.9,44.2,29.77,NW,315,0.0,4.0,44,0.00,,,0.00,meteohub,2013-09-18 09:17:00,
2013-09-18 02:22:00,67.6,45.0,29.77,NW,314,0.0,2.0,44,0.00,,,0.00,meteohub,2013-09-18 09:22:00,
2013-09-18 02:27:00,68.4,45.0,29.77,NW,306,0.0,0.0,43,0.00,,,0.00,meteohub,2013-09-18 09:27:00,
2013-09-18 02:32:00,68.7,44.8,29.77,NW,306,0.0,7.0,42,0.00,,,0.00,meteohub,2013-09-18 09:32:00,
2013-09-18 02:37:00,68.2,44.8,29.77,NW,306,0.0,7.0,43,0.00,,,0.00,meteohub,2013-09-18 09:37:00,
2013-09-18 02:42:00,67.8,44.4,29.77,NW,306,0.0,7.0,43,0.00,,,0.00,meteohub,2013-09-18 09:42:00,
2013-09-18 02:47:00,67.8,44.4,29.77,NW,306,0.0,0.0,43,0.00,,,0.00,meteohub,2013-09-18 09:47:00,
2013-09-18 02:52:00,68.0,44.6,29.77,NW,306,0.0,7.0,43,0.00,,,0.00,meteohub,2013-09-18 09:52:00,
2013-09-18 02:57:00,67.8,44.4,29.77,NW,306,0.0,7.0,43,0.00,,,0.00,meteohub,2013-09-18 09:57:00,
2013-09-18 03:02:00,67.6,45.0,29.77,NW,306,0.0,4.0,44,0.00,,,0.00,meteohub,2013-09-18 10:02:00,
2013-09-18 03:07:00,66.7,44.1,29.76,NW,306,0.0,4.0,44,0.00,,,0.00,meteohub,2013-09-18 10:07:00,
2013-09-18 03:12:00,65.7,43.7,29.76,NW,306,0.0,0.0,45,0.00,,,0.00,meteohub,2013-09-18 10:12:00,
2013-09-18 03:17:00,64.6,43.9,29.76,NW,306,0.0,0.0,47,0.00,,,0.00,meteohub,2013-09-18 10:17:00,
2013-09-18 03:22:00,63.3,43.3,29.76,NW,306,0.0,0.0,48,0.00,,,0.00,meteohub,2013-09-18 10:22:00,
2013-09-18 03:27:00,62.4,43.5,29.76,NW,306,0.0,0.0,50,0.00,,,0.00,meteohub,2013-09-18 10:27:00,
2013-09-18 03:32:00,61.7,42.8,29.76,NW,306,0.0,0.0,50,0.00,,,0.00,meteohub,2013-09-18 10:32:00,
2013-09-18 03:37:00,61.3,43.0,29.76,NW,306,0.0,3.0,51,0.00,,,0.00,meteohub,2013-09-18 10:37:00,
2013-09-18 03:42:00,60.8,43.0,29.76,NW,306,0.0,3.0,52,0.00,,,0.00,meteohub,2013-09-18 10:42:00,
2013-09-18 03:47:00,60.3,42.6,29.76,NW,306,0.0,3.0,52,0.00,,,0.00,meteohub,2013-09-18 10:47:00,
2013-09-18 03:52:00,60.1,43.0,29.76,NW,306,0.0,0.0,53,0.00,,,0.00,meteohub,2013-09-18 10:52:00,
2013-09-18 03:57:00,59.5,42.8,29.76,NW,306,0.0,0.0,54,0.00,,,0.00,meteohub,2013-09-18 10:57:00,
2013-09-18 04:02:00,59.5,42.8,29.76,NW,305,0.0,0.0,54,0.00,,,0.00,meteohub,2013-09-18 11:02:00,
2013-09-18 04:07:00,59.0,42.4,29.76,NW,306,0.0,0.0,54,0.00,,,0.00,meteohub,2013-09-18 11:07:00,
2013-09-18 04:12:00,59.0,42.8,29.76,NW,306,0.0,4.0,55,0.00,,,0.00,meteohub,2013-09-18 11:12:00,
2013-09-18 04:17:00,59.0,42.8,29.76,NW,305,0.0,4.0,55,0.00,,,0.00,meteohub,2013-09-18 11:17:00,
2013-09-18 04:22:00,59.0,42.4,29.76,NW,306,0.0,4.0,54,0.00,,,0.00,meteohub,2013-09-18 11:22:00,
2013-09-18 04:27:00,58.6,42.4,29.76,NW,306,0.0,1.0,55,0.00,,,0.00,meteohub,2013-09-18 11:27:00,
2013-09-18 04:32:00,58.3,42.6,29.76,NW,306,0.0,1.0,56,0.00,,,0.00,meteohub,2013-09-18 11:32:00,
2013-09-18 04:36:00,58.1,42.4,29.76,NW,305,0.0,0.0,56,0.00,,,0.00,meteohub,2013-09-18 11:36:00,
2013-09-18 04:41:00,57.7,42.1,29.76,NW,305,0.0,0.0,56,0.00,,,0.00,meteohub,2013-09-18 11:41:00,
2013-09-18 04:47:00,57.2,42.1,29.76,NW,306,0.0,0.0,57,0.00,,,0.00,meteohub,2013-09-18 11:47:00,
2013-09-18 04:52:00,56.8,42.3,29.76,NW,306,0.0,0.0,58,0.00,,,0.00,meteohub,2013-09-18 11:52:00,
2013-09-18 04:57:00,56.7,42.4,29.76,NW,305,0.0,0.0,59,0.00,,,0.00,meteohub,2013-09-18 11:57:00,
2013-09-18 05:02:00,57.0,42.8,29.76,NW,306,0.0,0.0,59,0.00,,,0.00,meteohub,2013-09-18 12:02:00,
2013-09-18 05:07:00,56.8,42.6,29.76,NW,306,0.0,0.0,59,0.00,,,0.00,meteohub,2013-09-18 12:07:00,
2013-09-18 05:12:00,56.7,43.0,29.77,NW,305,0.0,0.0,60,0.00,,,0.00,meteohub,2013-09-18 12:12:00,
2013-09-18 05:17:00,56.8,43.2,29.77,NW,306,0.0,0.0,60,0.00,,,0.00,meteohub,2013-09-18 12:17:00,
2013-09-18 05:22:00,56.5,42.8,29.77,NW,306,0.0,0.0,60,0.00,,,0.00,meteohub,2013-09-18 12:22:00,
2013-09-18 05:27:00,56.5,43.2,29.77,NW,306,0.0,0.0,61,0.00,,,0.00,meteohub,2013-09-18 12:27:00,
2013-09-18 05:32:00,56.5,43.2,29.78,NW,306,0.0,0.0,61,0.00,,,0.00,meteohub,2013-09-18 12:32:00,
2013-09-18 05:37:00,56.1,43.3,29.78,NW,305,0.0,0.0,62,0.00,,,0.00,meteohub,2013-09-18 12:37:00,
2013-09-18 05:42:00,55.9,43.2,29.78,NW,306,0.0,0.0,62,0.00,,,0.00,meteohub,2013-09-18 12:42:00,
2013-09-18 05:47:00,55.6,42.8,29.78,NW,305,0.0,0.0,62,0.00,,,0.00,meteohub,2013-09-18 12:47:00,
2013-09-18 05:52:00,55.0,42.6,29.78,NW,305,0.0,0.0,63,0.00,,,0.00,meteohub,2013-09-18 12:52:00,
2013-09-18 05:57:00,54.7,42.8,29.78,NW,306,0.0,0.0,64,0.00,,,0.00,meteohub,2013-09-18 12:57:00,
2013-09-18 06:02:00,54.3,42.8,29.78,NW,306,0.0,0.0,65,0.00,,,0.00,meteohub,2013-09-18 13:02:00,
2013-09-18 06:07:00,54.1,42.6,29.78,NW,306,0.0,0.0,65,0.00,,,0.00,meteohub,2013-09-18 13:07:00,
2013-09-18 06:12:00,54.0,42.4,29.78,NW,305,0.0,0.0,65,0.00,,,0.00,meteohub,2013-09-18 13:12:00,
2013-09-18 06:17:00,53.8,42.6,29.78,NW,306,0.0,0.0,66,0.00,,,0.00,meteohub,2013-09-18 13:17:00,
2013-09-18 06:22:00,53.4,42.3,29.78,NW,306,0.0,0.0,66,0.00,,,0.00,meteohub,2013-09-18 13:22:00,
2013-09-18 06:27:00,53.2,42.6,29.78,NW,305,0.0,0.0,67,0.00,,,0.00,meteohub,2013-09-18 13:27:00,
2013-09-18 06:32:00,53.8,43.2,29.79,NW,306,0.0,0.0,67,0.00,,,0.00,meteohub,2013-09-18 13:32:00,
2013-09-18 06:37:00,53.8,42.6,29.79,NW,305,0.0,0.0,66,0.00,,,0.00,meteohub,2013-09-18 13:37:00,
2013-09-18 06:42:00,53.2,42.3,29.79,NW,306,0.0,0.0,66,0.00,,,0.00,meteohub,2013-09-18 13:42:00,
2013-09-18 06:47:00,52.7,42.1,29.79,NW,305,0.0,0.0,67,0.00,,,0.00,meteohub,2013-09-18 13:47:00,
2013-09-18 06:52:00,52.5,42.3,29.79,NW,306,0.0,0.0,68,0.00,,,0.00,meteohub,2013-09-18 13:52:00,
2013-09-18 06:57:00,52.3,42.1,29.79,NW,306,0.0,0.0,68,0.00,,,0.00,meteohub,2013-09-18 13:57:00,
2013-09-18 07:02:00,52.3,42.1,29.79,NW,306,0.0,0.0,68,0.00,,,0.00,meteohub,2013-09-18 14:02:00,
2013-09-18 07:07:00,52.5,42.6,29.80,NW,306,0.0,0.0,69,0.00,,,0.00,meteohub,2013-09-18 14:07:00,
2013-09-18 07:12:00,53.1,43.2,29.80,NW,306,0.0,0.0,69,0.00,,,0.00,meteohub,2013-09-18 14:12:00,
2013-09-18 07:17:00,53.6,43.7,29.80,NW,305,0.0,0.0,69,0.00,,,0.00,meteohub,2013-09-18 14:17:00,
2013-09-18 07:22:00,54.0,43.3,29.80,NW,305,0.0,0.0,67,0.00,,,0.00,meteohub,2013-09-18 14:22:00,
2013-09-18 07:27:00,54.1,43.3,29.81,NW,305,0.0,0.0,67,0.00,,,0.00,meteohub,2013-09-18 14:27:00,
2013-09-18 07:32:00,55.0,44.2,29.81,NW,306,0.0,0.0,67,0.00,,,0.00,meteohub,2013-09-18 14:32:00,
2013-09-18 07:37:00,55.9,45.1,29.81,NW,306,0.0,0.0,67,0.00,,,0.00,meteohub,2013-09-18 14:37:00,
2013-09-18 07:42:00,56.7,45.5,29.81,NW,306,0.0,0.0,66,0.00,,,0.00,meteohub,2013-09-18 14:42:00,
2013-09-18 07:47:00,57.6,45.9,29.81,NW,306,0.0,0.0,65,0.00,,,0.00,meteohub,2013-09-18 14:47:00,
2013-09-18 07:52:00,58.5,45.9,29.81,NW,305,0.0,1.0,63,0.00,,,0.00,meteohub,2013-09-18 14:52:00,
2013-09-18 07:57:00,59.2,46.2,29.81,NW,306,0.0,1.0,62,0.00,,,0.00,meteohub,2013-09-18 14:57:00,
2013-09-18 08:02:00,60.4,46.4,29.81,NW,306,0.0,1.0,60,0.00,,,0.00,meteohub,2013-09-18 15:02:00,
2013-09-18 08:07:00,61.5,46.2,29.81,NW,306,0.0,0.0,57,0.00,,,0.00,meteohub,2013-09-18 15:07:00,
2013-09-18 08:12:00,63.0,46.0,29.81,NW,305,0.0,0.0,54,0.00,,,0.00,meteohub,2013-09-18 15:12:00,
2013-09-18 08:17:00,63.7,45.7,29.81,NW,306,0.0,0.0,52,0.00,,,0.00,meteohub,2013-09-18 15:17:00,
2013-09-18 08:22:00,64.0,46.0,29.81,NW,306,0.0,0.0,52,0.00,,,0.00,meteohub,2013-09-18 15:22:00,
2013-09-18 08:27:00,65.3,46.8,29.81,NW,306,0.0,0.0,51,0.00,,,0.00,meteohub,2013-09-18 15:27:00,
2013-09-18 08:32:00,66.6,46.8,29.81,NW,305,0.0,0.0,49,0.00,,,0.00,meteohub,2013-09-18 15:32:00,
2013-09-18 08:38:00,67.8,46.9,29.81,NW,305,0.0,0.0,47,0.00,,,0.00,meteohub,2013-09-18 15:38:00,
2013-09-18 08:43:00,68.5,46.9,29.81,NW,305,0.0,0.0,46,0.00,,,0.00,meteohub,2013-09-18 15:43:00,
2013-09-18 08:48:00,69.4,47.1,29.81,NW,305,0.0,0.0,45,0.00,,,0.00,meteohub,2013-09-18 15:48:00,
2013-09-18 08:53:00,70.2,46.6,29.81,NW,306,0.0,0.0,43,0.00,,,0.00,meteohub,2013-09-18 15:53:00,
2013-09-18 08:58:00,71.1,46.8,29.80,NW,306,0.0,0.0,42,0.00,,,0.00,meteohub,2013-09-18 15:58:00,
2013-09-18 09:01:00,71.8,46.8,29.80,NW,305,0.0,0.0,41,0.00,,,0.00,meteohub,2013-09-18 16:01:00,
2013-09-18 09:06:00,72.3,46.0,29.80,NW,306,0.0,0.0,39,0.00,,,0.00,meteohub,2013-09-18 16:06:00,
2013-09-18 09:11:00,72.7,46.2,29.81,NW,305,0.0,0.0,39,0.00,,,0.00,meteohub,2013-09-18 16:11:00,
2013-09-18 09:16:00,72.7,45.7,29.80,NW,306,0.0,0.0,38,0.00,,,0.00,meteohub,2013-09-18 16:16:00,
2013-09-18 09:21:00,73.0,45.9,29.80,NW,306,0.0,0.0,38,0.00,,,0.00,meteohub,2013-09-18 16:21:00,
2013-09-18 09:26:00,73.6,45.7,29.80,NW,306,0.0,0.0,37,0.00,,,0.00,meteohub,2013-09-18 16:26:00,
2013-09-18 09:31:00,73.8,45.1,29.80,NW,306,0.0,0.0,36,0.00,,,0.00,meteohub,2013-09-18 16:31:00,
2013-09-18 09:36:00,73.8,44.4,29.80,NW,306,0.0,0.0,35,0.00,,,0.00,meteohub,2013-09-18 16:36:00,
2013-09-18 09:41:00,74.1,44.8,29.80,NW,306,0.0,0.0,35,0.00,,,0.00,meteohub,2013-09-18 16:41:00,
2013-09-18 09:46:00,74.8,44.6,29.80,NW,306,0.0,0.0,34,0.00,,,0.00,meteohub,2013-09-18 16:46:00,
2013-09-18 09:51:00,75.0,45.5,29.80,NW,305,0.0,0.0,35,0.00,,,0.00,meteohub,2013-09-18 16:51:00,
2013-09-18 09:56:00,74.1,44.8,29.80,NW,306,4.0,5.0,35,0.00,,,0.00,meteohub,2013-09-18 16:56:00,
2013-09-18 10:01:00,73.9,44.6,29.80,NW,306,0.0,6.0,35,0.00,,,0.00,meteohub,2013-09-18 17:01:00,
2013-09-18 10:06:00,74.1,43.9,29.80,NW,305,0.0,6.0,34,0.00,,,0.00,meteohub,2013-09-18 17:06:00,
2013-09-18 10:11:00,75.6,44.4,29.80,NW,306,0.0,5.0,33,0.00,,,0.00,meteohub,2013-09-18 17:11:00,
2013-09-18 10:16:00,76.5,51.1,29.80,SE,129,2.0,9.0,41,0.00,,,0.00,meteohub,2013-09-18 17:16:00,
2013-09-18 10:21:00,75.7,51.1,29.80,SSE,159,0.0,9.0,42,0.00,,,0.00,meteohub,2013-09-18 17:21:00,
2013-09-18 10:26:00,74.8,52.7,29.80,SE,137,7.0,12.0,46,0.00,,,0.00,meteohub,2013-09-18 17:26:00,
2013-09-18 10:31:00,74.7,52.5,29.79,SE,126,6.0,12.0,46,0.00,,,0.00,meteohub,2013-09-18 17:31:00,
2013-09-18 10:37:00,75.4,52.5,29.79,SE,137,1.0,12.0,45,0.00,,,0.00,meteohub,2013-09-18 17:37:00,
2013-09-18 10:42:00,76.3,53.4,29.79,SE,135,12.0,12.0,45,0.00,,,0.00,meteohub,2013-09-18 17:42:00,
2013-09-18 10:47:00,74.8,53.8,29.79,SSE,152,12.0,15.0,48,0.00,,,0.00,meteohub,2013-09-18 17:47:00,
2013-09-18 10:52:00,74.5,54.1,29.79,SE,144,13.0,16.0,49,0.00,,,0.00,meteohub,2013-09-18 17:52:00,
2013-09-18 10:57:00,73.9,54.7,29.79,SE,135,10.0,16.0,51,0.00,,,0.00,meteohub,2013-09-18 17:57:00,
2013-09-18 11:02:00,74.1,54.3,29.79,SE,129,10.0,16.0,50,0.00,,,0.00,meteohub,2013-09-18 18:02:00,
2013-09-18 11:07:00,74.5,54.1,29.79,ESE,123,17.0,17.0,49,0.00,,,0.00,meteohub,2013-09-18 18:07:00,
2013-09-18 11:12:00,74.1,54.3,29.78,SE,135,9.0,18.0,50,0.00,,,0.00,meteohub,2013-09-18 18:12:00,
2013-09-18 11:17:00,73.9,54.1,29.78,SSE,156,17.0,20.0,50,0.00,,,0.00,meteohub,2013-09-18 18:17:00,
2013-09-18 11:22:00,74.1,54.3,29.78,SSE,154,8.0,20.0,50,0.00,,,0.00,meteohub,2013-09-18 18:22:00,
2013-09-18 11:28:00,74.7,54.9,29.78,SSW,194,13.0,20.0,50,0.00,,,0.00,meteohub,2013-09-18 18:28:00,
2013-09-18 11:34:00,75.0,55.0,29.78,SSE,150,11.0,19.0,50,0.00,,,0.00,meteohub,2013-09-18 18:34:00,
2013-09-18 11:39:00,75.0,54.5,29.78,SSE,153,12.0,19.0,49,0.00,,,0.00,meteohub,2013-09-18 18:39:00,
2013-09-18 11:44:00,74.7,54.9,29.78,SSW,192,12.0,20.0,50,0.00,,,0.00,meteohub,2013-09-18 18:44:00,
2013-09-18 11:49:00,75.0,55.0,29.78,South,180,9.0,20.0,50,0.00,,,0.00,meteohub,2013-09-18 18:49:00,
2013-09-18 11:54:00,74.8,55.0,29.78,SSE,156,10.0,20.0,50,0.00,,,0.00,meteohub,2013-09-18 18:54:00,
2013-09-18 11:59:00,74.7,54.9,29.78,SSE,158,3.0,22.0,50,0.00,,,0.00,meteohub,2013-09-18 18:59:00,
2013-09-18 12:04:00,74.8,54.3,29.78,SSE,154,14.0,22.0,49,0.00,,,0.00,meteohub,2013-09-18 19:04:00,
2013-09-18 12:09:00,75.0,55.0,29.78,SE,127,12.0,23.0,50,0.00,,,0.00,meteohub,2013-09-18 19:09:00,
2013-09-18 12:14:00,75.0,54.5,29.78,SE,127,14.0,23.0,49,0.00,,,0.00,meteohub,2013-09-18 19:14:00,
2013-09-18 12:19:00,75.4,54.9,29.78,SE,140,19.0,23.0,49,0.00,,,0.00,meteohub,2013-09-18 19:19:00,
2013-09-18 12:24:00,75.0,54.0,29.78,SE,127,10.0,23.0,48,0.00,,,0.00,meteohub,2013-09-18 19:24:00,
2013-09-18 12:29:00,75.6,54.5,29.78,South,175,20.0,23.0,48,0.00,,,0.00,meteohub,2013-09-18 19:29:00,
2013-09-18 12:34:00,75.4,54.3,29.78,SSE,147,14.0,25.0,48,0.00,,,0.00,meteohub,2013-09-18 19:34:00,
2013-09-18 12:39:00,75.9,53.6,29.78,SE,125,16.0,26.0,46,0.00,,,0.00,meteohub,2013-09-18 19:39:00,
2013-09-18 12:44:00,76.3,54.0,29.78,SE,146,12.0,26.0,46,0.00,,,0.00,meteohub,2013-09-18 19:44:00,
2013-09-18 12:50:00,76.5,54.1,29.78,SE,135,15.0,23.0,46,0.00,,,0.00,meteohub,2013-09-18 19:50:00,
2013-09-18 12:55:00,76.6,53.8,29.78,SE,142,18.0,23.0,45,0.00,,,0.00,meteohub,2013-09-18 19:55:00,
2013-09-18 13:00:00,76.5,53.6,29.78,South,169,9.0,23.0,45,0.00,,,0.00,meteohub,2013-09-18 20:00:00,
2013-09-18 13:05:00,76.6,53.8,29.78,ESE,102,10.0,25.0,45,0.00,,,0.00,meteohub,2013-09-18 20:05:00,
2013-09-18 13:10:00,76.8,53.8,29.77,SE,142,14.0,25.0,45,0.00,,,0.00,meteohub,2013-09-18 20:10:00,
2013-09-18 13:16:00,77.4,54.3,29.77,South,171,7.0,23.0,45,0.00,,,0.00,meteohub,2013-09-18 20:16:00,
2013-09-18 13:21:00,77.5,54.0,29.77,South,171,19.0,23.0,44,0.00,,,0.00,meteohub,2013-09-18 20:21:00,
2013-09-18 13:26:00,77.5,54.0,29.76,ESE,123,18.0,22.0,44,0.00,,,0.00,meteohub,2013-09-18 20:26:00,
2013-09-18 13:31:00,78.1,54.3,29.76,SSE,150,15.0,22.0,44,0.00,,,0.00,meteohub,2013-09-18 20:31:00,
2013-09-18 13:37:00,78.1,53.8,29.76,South,173,9.0,22.0,43,0.00,,,0.00,meteohub,2013-09-18 20:37:00,
2013-09-18 13:42:00,78.1,53.8,29.76,SSE,155,20.0,22.0,43,0.00,,,0.00,meteohub,2013-09-18 20:42:00,
2013-09-18 13:47:00,78.3,54.0,29.76,SSE,148,10.0,25.0,43,0.00,,,0.00,meteohub,2013-09-18 20:47:00,
2013-09-18 13:52:00,78.4,54.1,29.76,SSE,151,9.0,25.0,43,0.00,,,0.00,meteohub,2013-09-18 20:52:00,
2013-09-18 13:57:00,78.8,54.5,29.76,South,173,9.0,21.0,43,0.00,,,0.00,meteohub,2013-09-18 20:57:00,
2013-09-18 14:02:00,78.6,54.3,29.75,ESE,115,10.0,22.0,43,0.00,,,0.00,meteohub,2013-09-18 21:02:00,
2013-09-18 14:07:00,79.2,54.1,29.75,SSE,147,11.0,22.0,42,0.00,,,0.00,meteohub,2013-09-18 21:07:00,
2013-09-18 14:12:00,78.6,54.3,29.75,SSW,204,5.0,22.0,43,0.00,,,0.00,meteohub,2013-09-18 21:12:00,
2013-09-18 14:17:00,79.0,54.0,29.75,South,183,9.0,23.0,42,0.00,,,0.00,meteohub,2013-09-18 21:17:00,
2013-09-18 14:22:00,79.3,54.3,29.75,SE,143,12.0,23.0,42,0.00,,,0.00,meteohub,2013-09-18 21:22:00,
2013-09-18 14:28:00,79.3,54.3,29.75,SSE,154,14.0,19.0,42,0.00,,,0.00,meteohub,2013-09-18 21:28:00,
2013-09-18 14:33:00,79.3,54.3,29.75,SE,135,17.0,19.0,42,0.00,,,0.00,meteohub,2013-09-18 21:33:00,
2013-09-18 14:38:00,80.1,54.9,29.75,South,175,13.0,21.0,42,0.00,,,0.00,meteohub,2013-09-18 21:38:00,
2013-09-18 14:43:00,80.2,54.3,29.75,ESE,120,22.0,22.0,41,0.00,,,0.00,meteohub,2013-09-18 21:43:00,
2013-09-18 14:48:00,79.0,54.0,29.75,SE,144,13.0,22.0,42,0.00,,,0.00,meteohub,2013-09-18 21:48:00,
2013-09-18 14:54:00,79.9,54.7,29.74,SSE,162,6.0,23.0,42,0.00,,,0.00,meteohub,2013-09-18 21:54:00,
2013-09-18 14:59:00,80.1,54.9,29.75,SE,137,13.0,23.0,42,0.00,,,0.00,meteohub,2013-09-18 21:59:00,
2013-09-18 15:04:00,79.9,55.4,29.75,SSE,161,14.0,25.0,43,0.00,,,0.00,meteohub,2013-09-18 22:04:00,
2013-09-18 15:09:00,80.1,55.6,29.74,SE,131,15.0,25.0,43,0.00,,,0.00,meteohub,2013-09-18 22:09:00,
2013-09-18 15:14:00,80.2,55.8,29.74,SSE,148,10.0,25.0,43,0.00,,,0.00,meteohub,2013-09-18 22:14:00,
2013-09-18 15:19:00,80.2,55.8,29.75,SSE,151,11.0,21.0,43,0.00,,,0.00,meteohub,2013-09-18 22:19:00,
2013-09-18 15:24:00,80.1,56.1,29.75,SE,140,15.0,21.0,44,0.00,,,0.00,meteohub,2013-09-18 22:24:00,
2013-09-18 15:29:00,79.9,55.9,29.74,SE,135,20.0,21.0,44,0.00,,,0.00,meteohub,2013-09-18 22:29:00,
2013-09-18 15:34:00,80.2,55.8,29.74,SSE,156,12.0,21.0,43,0.00,,,0.00,meteohub,2013-09-18 22:34:00,
2013-09-18 15:39:00,80.2,55.8,29.74,SSE,151,4.0,22.0,43,0.00,,,0.00,meteohub,2013-09-18 22:39:00,
2013-09-18 15:44:00,80.4,55.9,29.74,SE,132,1.0,22.0,43,0.00,,,0.00,meteohub,2013-09-18 22:44:00,
2013-09-18 15:50:00,80.1,56.1,29.74,SE,133,11.0,24.0,44,0.00,,,0.00,meteohub,2013-09-18 22:50:00,
2013-09-18 15:55:00,79.7,55.9,29.74,SSE,150,8.0,24.0,44,0.00,,,0.00,meteohub,2013-09-18 22:55:00,
2013-09-18 16:00:00,80.1,56.1,29.74,ESE,116,11.0,24.0,44,0.00,,,0.00,meteohub,2013-09-18 23:00:00,
2013-09-18 16:05:00,79.3,55.6,29.74,SSE,148,13.0,18.0,44,0.00,,,0.00,meteohub,2013-09-18 23:05:00,
2013-09-18 16:10:00,79.3,55.6,29.74,SSE,154,12.0,22.0,44,0.00,,,0.00,meteohub,2013-09-18 23:10:00,
2013-09-18 16:15:00,79.5,55.8,29.74,ESE,115,13.0,22.0,44,0.00,,,0.00,meteohub,2013-09-18 23:15:00,
2013-09-18 16:20:00,79.3,55.6,29.74,ESE,113,5.0,19.0,44,0.00,,,0.00,meteohub,2013-09-18 23:20:00,
2013-09-18 16:25:00,79.3,56.1,29.74,SE,136,9.0,19.0,45,0.00,,,0.00,meteohub,2013-09-18 23:25:00,
2013-09-18 16:30:00,79.2,55.4,29.74,SE,133,7.0,20.0,44,0.00,,,0.00,meteohub,2013-09-18 23:30:00,
2013-09-18 16:35:00,79.3,56.1,29.74,SE,143,11.0,20.0,45,0.00,,,0.00,meteohub,2013-09-18 23:35:00,
2013-09-18 16:40:00,78.6,55.6,29.74,SSE,162,11.0,19.0,45,0.00,,,0.00,meteohub,2013-09-18 23:40:00,
2013-09-18 16:46:00,79.2,55.9,29.74,SSE,149,11.0,20.0,45,0.00,,,0.00,meteohub,2013-09-18 23:46:00,
2013-09-18 16:51:00,79.0,55.8,29.74,SSE,158,8.0,20.0,45,0.00,,,0.00,meteohub,2013-09-18 23:51:00,
2013-09-18 16:56:00,79.0,55.8,29.74,ESE,123,9.0,18.0,45,0.00,,,0.00,meteohub,2013-09-18 23:56:00,
2013-09-18 17:01:00,79.3,56.1,29.74,SSE,165,14.0,18.0,45,0.00,,,0.00,meteohub,2013-09-19 00:01:00,
2013-09-18 17:06:00,79.2,55.9,29.74,SSE,162,5.0,18.0,45,0.00,,,0.00,meteohub,2013-09-19 00:06:00,
2013-09-18 17:11:00,79.0,55.8,29.74,SSE,158,8.0,18.0,45,0.00,,,0.00,meteohub,2013-09-19 00:11:00,
2013-09-18 17:16:00,78.6,56.1,29.74,SE,132,15.0,15.0,46,0.00,,,0.00,meteohub,2013-09-19 00:16:00,
2013-09-18 17:21:00,78.4,56.5,29.74,SE,143,13.0,17.0,47,0.00,,,0.00,meteohub,2013-09-19 00:21:00,
2013-09-18 17:26:00,78.1,56.3,29.74,SE,139,8.0,17.0,47,0.00,,,0.00,meteohub,2013-09-19 00:26:00,
2013-09-18 17:31:00,77.9,56.7,29.74,SSE,153,15.0,17.0,48,0.00,,,0.00,meteohub,2013-09-19 00:31:00,
2013-09-18 17:36:00,77.5,56.3,29.74,SSE,159,10.0,17.0,48,0.00,,,0.00,meteohub,2013-09-19 00:36:00,
2013-09-18 17:41:00,77.4,56.1,29.75,SE,137,5.0,17.0,48,0.00,,,0.00,meteohub,2013-09-19 00:41:00,
2013-09-18 17:46:00,77.5,56.3,29.75,SSE,154,6.0,16.0,48,0.00,,,0.00,meteohub,2013-09-19 00:46:00,
2013-09-18 17:51:00,77.5,56.3,29.75,SE,146,5.0,16.0,48,0.00,,,0.00,meteohub,2013-09-19 00:51:00,
2013-09-18 17:56:00,77.2,56.5,29.75,South,181,7.0,15.0,49,0.00,,,0.00,meteohub,2013-09-19 00:56:00,
2013-09-18 18:01:00,76.8,56.3,29.75,SSE,150,3.0,15.0,49,0.00,,,0.00,meteohub,2013-09-19 01:01:00,
2013-09-18 18:06:00,76.5,56.5,29.75,South,172,0.0,15.0,50,0.00,,,0.00,meteohub,2013-09-19 01:06:00,
2013-09-18 18:11:00,76.1,56.7,29.75,South,176,8.0,16.0,51,0.00,,,0.00,meteohub,2013-09-19 01:11:00,
2013-09-18 18:16:00,75.7,56.3,29.75,SSE,161,4.0,16.0,51,0.00,,,0.00,meteohub,2013-09-19 01:16:00,
2013-09-18 18:21:00,75.4,56.5,29.75,SSE,156,4.0,15.0,52,0.00,,,0.00,meteohub,2013-09-19 01:21:00,
2013-09-18 18:26:00,74.8,56.5,29.75,SSE,147,3.0,14.0,53,0.00,,,0.00,meteohub,2013-09-19 01:26:00,
2013-09-18 18:31:00,74.7,56.5,29.75,SSE,160,0.0,13.0,53,0.00,,,0.00,meteohub,2013-09-19 01:31:00,
2013-09-18 18:36:00,74.1,56.5,29.75,SSE,166,13.0,13.0,54,0.00,,,0.00,meteohub,2013-09-19 01:36:00,
2013-09-18 18:41:00,73.8,56.7,29.75,SE,144,5.0,13.0,55,0.00,,,0.00,meteohub,2013-09-19 01:41:00,
2013-09-18 18:46:00,73.4,56.3,29.75,SSE,165,5.0,13.0,55,0.00,,,0.00,meteohub,2013-09-19 01:46:00,
2013-09-18 18:51:00,72.9,56.3,29.75,SSE,158,4.0,13.0,56,0.00,,,0.00,meteohub,2013-09-19 01:51:00,
2013-09-18 18:56:00,72.5,56.5,29.75,SSE,167,6.0,13.0,57,0.00,,,0.00,meteohub,2013-09-19 01:56:00,
2013-09-18 19:01:00,72.1,56.1,29.75,SSE,148,3.0,13.0,57,0.00,,,0.00,meteohub,2013-09-19 02:01:00,
2013-09-18 19:06:00,72.0,56.3,29.75,SE,139,0.0,13.0,58,0.00,,,0.00,meteohub,2013-09-19 02:06:00,
2013-09-18 19:12:00,71.6,56.1,29.76,SSE,150,0.0,12.0,58,0.00,,,0.00,meteohub,2013-09-19 02:12:00,
2013-09-18 19:17:00,71.2,56.1,29.76,SSE,151,0.0,12.0,59,0.00,,,0.00,meteohub,2013-09-19 02:17:00,
2013-09-18 19:22:00,71.1,55.9,29.76,South,182,5.0,12.0,59,0.00,,,0.00,meteohub,2013-09-19 02:22:00,
2013-09-18 19:27:00,70.9,56.3,29.76,South,182,0.0,9.0,60,0.00,,,0.00,meteohub,2013-09-19 02:27:00,
2013-09-18 19:32:00,70.5,55.9,29.76,South,182,0.0,9.0,60,0.00,,,0.00,meteohub,2013-09-19 02:32:00,
2013-09-18 19:37:00,70.3,56.3,29.77,South,182,0.0,9.0,61,0.00,,,0.00,meteohub,2013-09-19 02:37:00,
2013-09-18 19:42:00,70.3,56.3,29.77,South,183,0.0,0.0,61,0.00,,,0.00,meteohub,2013-09-19 02:42:00,
2013-09-18 19:47:00,70.7,56.1,29.77,South,183,0.0,9.0,60,0.00,,,0.00,meteohub,2013-09-19 02:47:00,
2013-09-18 19:53:00,70.9,56.3,29.77,South,183,0.0,9.0,60,0.00,,,0.00,meteohub,2013-09-19 02:53:00,
2013-09-18 19:58:00,70.3,55.8,29.78,South,182,0.0,7.0,60,0.00,,,0.00,meteohub,2013-09-19 02:58:00,
2013-09-18 20:03:00,70.0,55.9,29.78,South,182,0.0,0.0,61,0.00,,,0.00,meteohub,2013-09-19 03:03:00,
2013-09-18 20:09:00,69.6,55.6,29.78,South,183,0.0,0.0,61,0.00,,,0.00,meteohub,2013-09-19 03:09:00,
2013-09-18 20:14:00,69.4,55.9,29.78,South,182,0.0,0.0,62,0.00,,,0.00,meteohub,2013-09-19 03:14:00,
2013-09-18 20:19:00,68.7,55.2,29.78,South,183,0.0,4.0,62,0.00,,,0.00,meteohub,2013-09-19 03:19:00,
2013-09-18 20:24:00,68.0,54.9,29.79,South,182,0.0,4.0,63,0.00,,,0.00,meteohub,2013-09-19 03:24:00,
2013-09-18 20:29:00,67.8,55.6,29.79,South,179,0.0,4.0,65,0.00,,,0.00,meteohub,2013-09-19 03:29:00,
2013-09-18 20:34:00,67.6,55.4,29.79,South,179,0.0,6.0,65,0.00,,,0.00,meteohub,2013-09-19 03:34:00,
2013-09-18 20:39:00,67.6,55.9,29.79,South,180,0.0,6.0,66,0.00,,,0.00,meteohub,2013-09-19 03:39:00,
2013-09-18 20:44:00,67.5,55.8,29.80,South,179,0.0,6.0,66,0.00,,,0.00,meteohub,2013-09-19 03:44:00,
2013-09-18 20:49:00,67.1,55.4,29.80,South,180,0.0,5.0,66,0.00,,,0.00,meteohub,2013-09-19 03:49:00,
2013-09-18 20:54:00,66.7,55.4,29.80,South,180,0.0,5.0,67,0.00,,,0.00,meteohub,2013-09-19 03:54:00,
2013-09-18 20:59:00,66.6,55.2,29.80,South,180,0.0,0.0,67,0.00,,,0.00,meteohub,2013-09-19 03:59:00,
2013-09-18 21:01:00,66.4,55.0,29.80,South,180,0.0,0.0,67,0.00,,,0.00,meteohub,2013-09-19 04:01:00,
2013-09-18 21:02:00,66.4,55.0,29.80,South,180,0.0,0.0,67,0.00,,,0.00,meteohub,2013-09-19 04:02:00,
2013-09-18 21:08:00,65.8,55.0,29.80,South,179,0.0,0.0,68,0.00,,,0.00,meteohub,2013-09-19 04:08:00,
2013-09-18 21:13:00,65.5,55.0,29.80,South,180,0.0,0.0,69,0.00,,,0.00,meteohub,2013-09-19 04:13:00,
2013-09-18 21:18:00,65.1,54.7,29.80,South,179,0.0,0.0,69,0.00,,,0.00,meteohub,2013-09-19 04:18:00,
2013-09-18 21:23:00,64.8,54.3,29.80,South,180,0.0,0.0,69,0.00,,,0.00,meteohub,2013-09-19 04:23:00,
2013-09-18 21:28:00,64.2,54.3,29.80,South,180,0.0,0.0,70,0.00,,,0.00,meteohub,2013-09-19 04:28:00,
2013-09-18 21:33:00,64.2,54.7,29.80,South,180,0.0,0.0,71,0.00,,,0.00,meteohub,2013-09-19 04:33:00,
2013-09-18 21:38:00,64.2,54.7,29.81,South,179,0.0,0.0,71,0.00,,,0.00,meteohub,2013-09-19 04:38:00,
2013-09-18 21:43:00,64.0,54.9,29.80,South,180,0.0,0.0,72,0.00,,,0.00,meteohub,2013-09-19 04:43:00,
2013-09-18 21:48:00,64.0,54.9,29.80,South,180,0.0,0.0,72,0.00,,,0.00,meteohub,2013-09-19 04:48:00,
2013-09-18 21:53:00,63.9,54.3,29.80,South,180,0.0,0.0,71,0.00,,,0.00,meteohub,2013-09-19 04:53:00,
2013-09-18 21:58:00,63.3,54.1,29.80,South,180,0.0,0.0,72,0.00,,,0.00,meteohub,2013-09-19 04:58:00,
2013-09-18 22:03:00,63.1,54.0,29.80,South,180,0.0,0.0,72,0.00,,,0.00,meteohub,2013-09-19 05:03:00,
2013-09-18 22:09:00,63.0,53.8,29.80,South,180,0.0,0.0,72,0.00,,,0.00,meteohub,2013-09-19 05:09:00,
2013-09-18 22:14:00,62.8,54.0,29.81,South,180,0.0,0.0,73,0.00,,,0.00,meteohub,2013-09-19 05:14:00,
2013-09-18 22:19:00,62.4,53.6,29.81,South,179,0.0,0.0,73,0.00,,,0.00,meteohub,2013-09-19 05:19:00,
2013-09-18 22:24:00,62.4,54.0,29.81,South,179,0.0,0.0,74,0.00,,,0.00,meteohub,2013-09-19 05:24:00,
2013-09-18 22:29:00,62.4,54.0,29.81,South,180,0.0,0.0,74,0.00,,,0.00,meteohub,2013-09-19 05:29:00,
2013-09-18 22:34:00,62.1,53.6,29.81,South,179,0.0,0.0,74,0.00,,,0.00,meteohub,2013-09-19 05:34:00,
2013-09-18 22:39:00,61.5,53.2,29.81,South,180,0.0,0.0,74,0.00,,,0.00,meteohub,2013-09-19 05:39:00,
2013-09-18 22:44:00,61.2,52.9,29.81,South,180,0.0,0.0,74,0.00,,,0.00,meteohub,2013-09-19 05:44:00,
2013-09-18 22:49:00,61.0,53.1,29.81,South,180,0.0,0.0,75,0.00,,,0.00,meteohub,2013-09-19 05:49:00,
2013-09-18 22:54:00,60.6,52.7,29.81,South,180,0.0,0.0,75,0.00,,,0.00,meteohub,2013-09-19 05:54:00,
2013-09-18 22:59:00,60.4,52.5,29.81,South,180,0.0,0.0,75,0.00,,,0.00,meteohub,2013-09-19 05:59:00,
2013-09-18 23:04:00,60.1,52.2,29.81,South,179,0.0,0.0,75,0.00,,,0.00,meteohub,2013-09-19 06:04:00,
2013-09-18 23:09:00,59.5,52.0,29.80,South,180,0.0,0.0,76,0.00,,,0.00,meteohub,2013-09-19 06:09:00,
2013-09-18 23:14:00,59.5,52.0,29.81,South,179,0.0,0.0,76,0.00,,,0.00,meteohub,2013-09-19 06:14:00,
2013-09-18 23:19:00,59.4,51.8,29.80,South,180,0.0,0.0,76,0.00,,,0.00,meteohub,2013-09-19 06:19:00,
2013-09-18 23:24:00,59.2,52.0,29.80,South,180,0.0,0.0,77,0.00,,,0.00,meteohub,2013-09-19 06:24:00,
2013-09-18 23:29:00,59.0,51.8,29.81,South,179,0.0,0.0,77,0.00,,,0.00,meteohub,2013-09-19 06:29:00,
2013-09-18 23:34:00,58.6,51.4,29.81,South,180,0.0,0.0,77,0.00,,,0.00,meteohub,2013-09-19 06:34:00,
2013-09-18 23:39:00,58.6,51.8,29.81,South,180,0.0,0.0,78,0.00,,,0.00,meteohub,2013-09-19 06:39:00,
2013-09-18 23:44:00,58.5,51.6,29.81,South,179,0.0,0.0,78,0.00,,,0.00,meteohub,2013-09-19 06:44:00,
2013-09-18 23:49:00,58.3,51.4,29.80,South,180,0.0,0.0,78,0.00,,,0.00,meteohub,2013-09-19 06:49:00,
2013-09-18 23:54:00,57.9,51.1,29.80,South,179,0.0,0.0,78,0.00,,,0.00,meteohub,2013-09-19 06:54:00,
2013-09-18 23:59:00,57.7,51.3,29.81,South,180,0.0,0.0,79,0.00,,,0.00,meteohub,2013-09-19 06:59:00,